Time;durP1;ratioP1;P1;durP2;ratioP2;P2;SDS_P1;SDS_P2;PMS_P1;PMS_P2;Temp;Humidity;BMP_temperature;BMP_pressure;BME280_temperature;BME280_humidity;BME280_pressure;Samples;Min_cycle;Max_cycle;Signal;HPM_P1;HPM_P2
2020/12/09 00:02:09;;;;;;;35.70;21.20;;;8.70;56.90;;;;;;5008226;28;20259;-42
2020/12/09 00:04:35;;;;;;;31.67;21.50;;;8.70;56.80;;;;;;5011689;28;20194;-42
2020/12/09 00:07:00;;;;;;;35.53;21.37;;;8.70;56.90;;;;;;5009750;28;20285;-42
2020/12/09 00:09:26;;;;;;;30.53;20.37;;;8.70;57.40;;;;;;5011695;28;20190;-42
2020/12/09 00:11:53;;;;;;;34.00;21.90;;;8.60;57.50;;;;;;5012397;28;20193;-42
2020/12/09 00:14:19;;;;;;;30.03;20.63;;;8.70;57.50;;;;;;5010610;28;20213;-42
2020/12/09 00:16:45;;;;;;;32.97;21.53;;;8.70;57.50;;;;;;5009395;28;20444;-42
2020/12/09 00:19:11;;;;;;;31.80;22.90;;;8.60;57.40;;;;;;5010688;28;20445;-42
2020/12/09 00:21:37;;;;;;;29.77;19.40;;;8.70;57.40;;;;;;5009225;28;20186;-42
2020/12/09 00:24:03;;;;;;;31.87;20.23;;;8.70;57.40;;;;;;5009489;28;20598;-42
2020/12/09 00:26:30;;;;;;;34.43;21.17;;;8.70;57.40;;;;;;5008463;28;20297;-42
2020/12/09 00:28:56;;;;;;;32.30;21.83;;;8.60;57.50;;;;;;5010914;28;20473;-43
2020/12/09 00:31:28;;;;;;;28.90;20.47;;;8.60;57.50;;;;;;5008373;28;20460;-42
2020/12/09 00:33:54;;;;;;;33.67;20.67;;;8.60;57.60;;;;;;5011330;28;20452;-42
2020/12/09 00:36:21;;;;;;;35.20;20.90;;;8.60;57.60;;;;;;5008575;28;20488;-41
2020/12/09 00:38:48;;;;;;;33.67;21.80;;;8.60;57.60;;;;;;5011247;28;20197;-43
2020/12/09 00:41:16;;;;;;;32.10;20.93;;;8.60;57.60;;;;;;5008295;28;20516;-42
2020/12/09 00:43:41;;;;;;;36.03;20.90;;;8.60;57.80;;;;;;5013610;28;20476;-42
2020/12/09 00:46:07;;;;;;;32.63;20.30;;;8.60;57.80;;;;;;5008957;28;20465;-42
2020/12/09 00:48:32;;;;;;;34.97;21.37;;;8.60;57.80;;;;;;5010110;28;20713;-42
2020/12/09 00:50:59;;;;;;;31.37;21.93;;;8.60;58.20;;;;;;5006266;28;20194;-42
2020/12/09 00:53:26;;;;;;;35.10;21.60;;;8.50;57.70;;;;;;5005043;28;20204;-42
2020/12/09 00:55:53;;;;;;;32.80;19.50;;;8.60;57.80;;;;;;5003099;28;20542;-42
2020/12/09 00:58:19;;;;;;;29.40;20.13;;;8.50;57.90;;;;;;5010259;28;20872;-42
2020/12/09 01:00:44;;;;;;;34.20;21.37;;;8.50;57.90;;;;;;5010182;28;20487;-42
2020/12/09 01:03:10;;;;;;;32.77;21.87;;;8.50;57.90;;;;;;5007606;28;20661;-42
2020/12/09 01:05:35;;;;;;;31.33;19.80;;;8.60;58.00;;;;;;5008876;28;20201;-42
2020/12/09 01:08:01;;;;;;;35.60;22.50;;;8.60;57.90;;;;;;5008468;28;20303;-42
2020/12/09 01:10:27;;;;;;;32.63;21.40;;;8.60;57.90;;;;;;5003237;28;20221;-42
2020/12/09 01:12:52;;;;;;;33.40;20.43;;;8.50;57.90;;;;;;5005585;28;20190;-42
2020/12/09 01:15:18;;;;;;;38.97;21.97;;;8.60;58.00;;;;;;5002114;28;20316;-42
2020/12/09 01:17:44;;;;;;;34.13;22.20;;;8.50;58.20;;;;;;5007013;28;20208;-42
2020/12/09 01:20:10;;;;;;;29.97;20.30;;;8.50;58.30;;;;;;5007275;28;20960;-42
2020/12/09 01:22:36;;;;;;;34.07;21.77;;;8.50;58.50;;;;;;5010484;28;20484;-42
2020/12/09 01:25:03;;;;;;;36.57;21.37;;;8.50;58.40;;;;;;5009390;28;20198;-42
2020/12/09 01:27:28;;;;;;;36.33;22.57;;;8.50;58.40;;;;;;5007054;28;20262;-42
2020/12/09 01:29:54;;;;;;;36.30;23.03;;;8.50;58.40;;;;;;5010651;28;20901;-42
2020/12/09 01:32:20;;;;;;;34.80;21.60;;;8.50;58.50;;;;;;5008694;28;20193;-42
2020/12/09 01:34:45;;;;;;;33.00;22.20;;;8.50;58.40;;;;;;5008144;28;20226;-42
2020/12/09 01:37:14;;;;;;;34.60;21.23;;;8.50;58.30;;;;;;5008049;28;21006;-42
2020/12/09 01:39:40;;;;;;;32.30;21.23;;;8.60;58.20;;;;;;5007707;28;20252;-42
2020/12/09 01:42:06;;;;;;;35.30;22.10;;;8.60;58.20;;;;;;5005782;28;21019;-42
2020/12/09 01:44:31;;;;;;;34.37;22.13;;;8.60;58.20;;;;;;5010688;28;20539;-42
2020/12/09 01:47:01;;;;;;;32.73;20.60;;;8.50;58.40;;;;;;4998970;28;20190;-42
2020/12/09 01:49:26;;;;;;;32.13;20.03;;;8.50;58.50;;;;;;5005781;28;20265;-42
2020/12/09 01:51:52;;;;;;;35.47;21.03;;;8.50;58.50;;;;;;5010004;28;20539;-42
2020/12/09 01:54:18;;;;;;;29.83;20.53;;;8.50;58.60;;;;;;5008683;28;20189;-42
2020/12/09 01:56:44;;;;;;;37.30;21.90;;;8.50;58.50;;;;;;5008394;28;20206;-42
2020/12/09 01:59:09;;;;;;;28.87;21.17;;;8.50;58.50;;;;;;5005322;28;20252;-42
2020/12/09 02:01:35;;;;;;;35.90;21.00;;;8.50;58.60;;;;;;5009706;28;20198;-42
2020/12/09 02:04:01;;;;;;;33.23;21.70;;;8.50;58.50;;;;;;5006391;28;20201;-42
2020/12/09 02:06:26;;;;;;;33.67;21.63;;;8.50;58.40;;;;;;5008293;28;20448;-42
2020/12/09 02:08:52;;;;;;;38.93;23.20;;;8.50;58.40;;;;;;5009294;28;20204;-42
2020/12/09 02:11:18;;;;;;;32.13;22.90;;;8.30;58.10;;;;;;5010403;28;20220;-42
2020/12/09 02:13:47;;;;;;;33.00;20.80;;;8.30;58.50;;;;;;5004256;28;20205;-42
2020/12/09 02:16:13;;;;;;;37.03;22.27;;;8.40;58.90;;;;;;5007898;28;20665;-42
2020/12/09 02:18:42;;;;;;;36.10;22.07;;;8.40;58.90;;;;;;5007815;28;20455;-42
2020/12/09 02:21:08;;;;;;;36.00;22.37;;;8.40;58.90;;;;;;5007714;28;20460;-42
2020/12/09 02:23:33;;;;;;;34.03;22.50;;;8.40;59.10;;;;;;5008697;28;20444;-42
2020/12/09 02:25:59;;;;;;;32.53;21.50;;;8.50;59.10;;;;;;5009416;28;20456;-42
2020/12/09 02:28:25;;;;;;;37.57;22.37;;;8.40;59.10;;;;;;5009573;28;20638;-42
2020/12/09 02:30:50;;;;;;;33.20;21.00;;;8.50;59.10;;;;;;5006436;28;20200;-42
2020/12/09 02:33:16;;;;;;;30.93;20.50;;;8.40;58.90;;;;;;5007817;28;20204;-42
2020/12/09 02:35:41;;;;;;;29.73;20.40;;;8.50;59.10;;;;;;5009878;28;20727;-42
2020/12/09 02:38:07;;;;;;;33.00;20.87;;;8.60;59.00;;;;;;5009881;28;20547;-42
2020/12/09 02:40:33;;;;;;;33.40;22.27;;;8.50;58.80;;;;;;5008681;28;20189;-42
2020/12/09 02:42:58;;;;;;;38.00;22.77;;;8.50;58.70;;;;;;5006004;28;20717;-42
2020/12/09 02:45:25;;;;;;;38.50;23.03;;;8.60;58.80;;;;;;5005126;28;20197;-43
2020/12/09 02:47:51;;;;;;;34.00;20.13;;;8.60;58.80;;;;;;4997717;28;20193;-42
2020/12/09 02:50:16;;;;;;;39.37;22.10;;;8.60;58.70;;;;;;5007772;28;20932;-42
2020/12/09 02:52:42;;;;;;;34.20;21.50;;;8.60;58.50;;;;;;5009624;28;20194;-42
2020/12/09 02:55:07;;;;;;;33.43;21.37;;;8.60;58.30;;;;;;5009148;28;20252;-42
2020/12/09 02:57:33;;;;;;;35.33;21.90;;;8.60;58.50;;;;;;5009428;28;20280;-42
2020/12/09 02:59:58;;;;;;;35.93;22.13;;;8.60;58.70;;;;;;5006407;28;20673;-42
2020/12/09 03:02:24;;;;;;;32.93;20.57;;;8.60;58.90;;;;;;5001797;28;20270;-42
2020/12/09 03:04:49;;;;;;;33.93;21.53;;;8.60;58.90;;;;;;5005736;28;20221;-42
2020/12/09 03:07:15;;;;;;;29.83;20.43;;;8.60;58.90;;;;;;5008911;28;20243;-42
2020/12/09 03:09:41;;;;;;;34.20;21.70;;;8.60;58.90;;;;;;5007645;28;20194;-42
2020/12/09 03:12:06;;;;;;;32.50;20.33;;;8.70;59.00;;;;;;5007932;28;20202;-42
2020/12/09 03:14:32;;;;;;;33.37;21.40;;;8.60;58.90;;;;;;5007504;28;20569;-43
2020/12/09 03:16:57;;;;;;;34.00;21.20;;;8.60;58.90;;;;;;5007466;28;20206;-42
2020/12/09 03:19:23;;;;;;;33.67;23.10;;;8.60;59.40;;;;;;5006031;28;20220;-42
2020/12/09 03:21:48;;;;;;;35.00;22.93;;;8.70;58.90;;;;;;5007591;28;20201;-42
2020/12/09 03:24:14;;;;;;;33.67;19.83;;;8.70;58.80;;;;;;5005428;28;20198;-42
2020/12/09 03:26:39;;;;;;;29.67;21.33;;;8.60;58.70;;;;;;5007140;28;20219;-42
2020/12/09 03:29:05;;;;;;;33.23;20.60;;;8.70;58.60;;;;;;5011192;28;20250;-42
2020/12/09 03:31:30;;;;;;;34.50;21.97;;;8.70;58.60;;;;;;5009781;28;20202;-42
2020/12/09 03:33:56;;;;;;;32.10;21.80;;;8.70;58.40;;;;;;5013207;28;20200;-42
2020/12/09 03:36:22;;;;;;;31.97;21.27;;;8.70;58.40;;;;;;5008840;28;20313;-42
2020/12/09 03:38:47;;;;;;;32.80;21.03;;;8.70;58.40;;;;;;5010499;28;20197;-42
2020/12/09 03:41:13;;;;;;;35.47;22.30;;;8.60;58.40;;;;;;5013045;28;20708;-42
2020/12/09 03:43:39;;;;;;;31.10;22.00;;;8.50;58.60;;;;;;5012453;28;20204;-42
2020/12/09 03:46:04;;;;;;;33.33;21.27;;;8.50;58.70;;;;;;5010580;28;20213;-42
2020/12/09 03:48:30;;;;;;;36.17;22.13;;;8.50;58.70;;;;;;5011524;28;20316;-42
2020/12/09 03:50:56;;;;;;;31.03;20.80;;;8.50;58.70;;;;;;5007715;28;20194;-42
2020/12/09 03:53:21;;;;;;;32.07;21.20;;;8.40;58.60;;;;;;5012132;28;20561;-42
2020/12/09 03:55:48;;;;;;;30.13;20.17;;;8.50;58.60;;;;;;5009809;28;20258;-42
2020/12/09 03:58:14;;;;;;;30.83;19.40;;;8.40;58.60;;;;;;5007005;28;20228;-42
2020/12/09 04:00:40;;;;;;;33.20;21.33;;;8.40;58.80;;;;;;5011342;28;20449;-42
2020/12/09 04:03:05;;;;;;;34.60;21.93;;;8.40;58.80;;;;;;5012294;28;20282;-42
2020/12/09 04:05:31;;;;;;;32.97;21.07;;;8.40;58.60;;;;;;5010293;28;20515;-42
2020/12/09 04:07:56;;;;;;;30.13;20.43;;;8.40;58.50;;;;;;5004808;28;20697;-42
2020/12/09 04:10:22;;;;;;;33.03;20.30;;;8.30;58.60;;;;;;5007862;28;20234;-44
2020/12/09 04:12:48;;;;;;;34.27;21.97;;;8.30;58.70;;;;;;5008800;28;20201;-41
2020/12/09 04:15:14;;;;;;;33.13;21.50;;;8.30;58.80;;;;;;5010574;28;20225;-41
2020/12/09 04:17:39;;;;;;;30.43;19.90;;;8.30;58.70;;;;;;5006221;28;20198;-40
2020/12/09 04:20:06;;;;;;;33.10;21.33;;;8.30;58.90;;;;;;5002994;28;20201;-41
2020/12/09 04:22:32;;;;;;;27.80;19.23;;;8.30;58.70;;;;;;5010306;28;20256;-40
2020/12/09 04:24:57;;;;;;;36.37;22.50;;;8.20;58.70;;;;;;5010580;28;20444;-41
2020/12/09 04:27:23;;;;;;;35.23;22.00;;;8.20;58.80;;;;;;5002057;28;20205;-41
2020/12/09 04:29:49;;;;;;;30.60;20.50;;;8.20;58.70;;;;;;5009598;28;20206;-41
2020/12/09 04:32:14;;;;;;;33.73;21.27;;;8.20;58.70;;;;;;5003865;28;20688;-40
2020/12/09 04:34:40;;;;;;;32.63;21.40;;;8.30;58.80;;;;;;5011481;28;20221;-40
2020/12/09 04:37:08;;;;;;;32.77;22.13;;;8.20;58.80;;;;;;5009010;28;20799;-41
2020/12/09 04:39:33;;;;;;;28.83;19.70;;;8.30;58.70;;;;;;5007040;28;20308;-41
2020/12/09 04:41:59;;;;;;;32.50;23.10;;;8.20;58.70;;;;;;5009882;28;20528;-41
2020/12/09 04:44:25;;;;;;;31.20;19.47;;;8.20;58.80;;;;;;5011315;28;20218;-41
2020/12/09 04:46:52;;;;;;;28.73;19.83;;;8.20;58.90;;;;;;5008069;28;20233;-40
2020/12/09 04:49:23;;;;;;;30.67;20.17;;;8.10;59.00;;;;;;5005913;28;20874;-41
2020/12/09 04:52:15;;;;;;;31.97;21.10;;;8.20;59.00;;;;;;5006449;28;20452;-42
2020/12/09 04:54:47;;;;;;;32.40;19.17;;;8.20;58.90;;;;;;5009455;28;20559;-41
2020/12/09 04:57:37;;;;;;;32.77;20.13;;;8.20;58.90;;;;;;5012216;28;20421;-41
2020/12/09 05:00:10;;;;;;;29.93;20.77;;;8.10;59.20;;;;;;5007791;28;20444;-40
2020/12/09 05:02:48;;;;;;;30.63;21.80;;;8.10;59.20;;;;;;5007493;28;20457;-41
2020/12/09 05:05:16;;;;;;;30.53;19.80;;;8.10;59.20;;;;;;5008362;28;20457;-41
2020/12/09 05:07:47;;;;;;;31.33;20.60;;;8.20;59.20;;;;;;5010631;28;20846;-40
2020/12/09 05:10:15;;;;;;;30.03;21.17;;;8.20;59.10;;;;;;5009769;28;20504;-41
2020/12/09 05:12:46;;;;;;;33.63;22.53;;;8.20;59.10;;;;;;5001334;28;20502;-41
2020/12/09 05:15:19;;;;;;;34.70;22.33;;;8.20;59.10;;;;;;5007487;28;20657;-41
2020/12/09 05:18:01;;;;;;;32.93;19.70;;;8.20;59.10;;;;;;5004166;28;21879;-41
2020/12/09 05:20:30;;;;;;;34.00;21.50;;;8.20;59.00;;;;;;5005047;28;20452;-41
2020/12/09 05:22:57;;;;;;;32.27;21.40;;;8.30;58.90;;;;;;5006316;28;20466;-40
2020/12/09 05:25:26;;;;;;;34.73;21.60;;;8.20;58.80;;;;;;5006768;28;20445;-41
2020/12/09 05:27:53;;;;;;;34.40;21.80;;;8.20;58.90;;;;;;5007021;28;20467;-41
2020/12/09 05:30:57;;;;;;;35.17;21.20;;;8.10;59.10;;;;;;5010773;28;20514;-41
2020/12/09 05:33:33;;;;;;;37.03;22.07;;;8.10;59.30;;;;;;4987576;28;20469;-41
2020/12/09 05:36:03;;;;;;;32.40;21.60;;;8.10;59.20;;;;;;4982071;28;20509;-41
2020/12/09 05:38:29;;;;;;;35.43;22.77;;;8.10;59.10;;;;;;4996386;28;20889;-41
2020/12/09 05:40:56;;;;;;;40.70;22.10;;;8.10;59.00;;;;;;5010022;28;20451;-41
2020/12/09 05:43:22;;;;;;;34.90;21.40;;;8.10;59.00;;;;;;5011189;28;20809;-41
2020/12/09 05:45:48;;;;;;;38.00;22.03;;;8.10;59.10;;;;;;5008231;28;20453;-41
2020/12/09 05:48:20;;;;;;;34.93;22.10;;;8.20;59.20;;;;;;5006411;28;20522;-41
2020/12/09 05:50:48;;;;;;;38.70;23.57;;;8.10;59.20;;;;;;5007252;28;20202;-42
2020/12/09 05:53:18;;;;;;;37.03;22.97;;;8.10;59.20;;;;;;5008430;28;20448;-41
2020/12/09 05:55:44;;;;;;;34.27;23.17;;;8.10;59.50;;;;;;5006083;28;20492;-40
2020/12/09 05:58:24;;;;;;;33.37;21.67;;;8.10;59.40;;;;;;5006744;28;20583;-40
2020/12/09 06:01:04;;;;;;;35.60;22.57;;;8.10;59.50;;;;;;5005294;28;20588;-41
2020/12/09 06:03:31;;;;;;;36.90;23.13;;;8.10;59.60;;;;;;5010908;28;20455;-41
2020/12/09 06:06:22;;;;;;;37.43;22.60;;;8.20;59.50;;;;;;5007376;28;20463;-41
2020/12/09 06:08:49;;;;;;;42.73;26.83;;;8.10;59.50;;;;;;5007648;28;20444;-41
2020/12/09 06:11:18;;;;;;;43.27;28.43;;;8.10;59.50;;;;;;5008509;28;20479;-41
2020/12/09 06:13:44;;;;;;;40.83;28.63;;;8.10;59.40;;;;;;4997165;28;20437;-41
2020/12/09 06:16:10;;;;;;;36.60;24.20;;;8.20;59.40;;;;;;5006142;28;20484;-41
2020/12/09 06:18:38;;;;;;;29.23;19.60;;;8.30;60.70;;;;;;5009150;28;20456;-42
2020/12/09 06:21:05;;;;;;;32.10;20.13;;;8.60;61.40;;;;;;5005552;28;20445;-41
2020/12/09 06:23:31;;;;;;;30.67;19.37;;;8.80;60.10;;;;;;5006462;28;20444;-41
2020/12/09 06:25:59;;;;;;;32.57;20.93;;;9.00;59.50;;;;;;5008253;28;20440;-41
2020/12/09 06:28:27;;;;;;;30.10;20.20;;;9.30;59.60;;;;;;5010139;28;21210;-41
2020/12/09 06:30:55;;;;;;;35.97;21.83;;;9.50;58.90;;;;;;5006981;28;20437;-41
2020/12/09 06:33:31;;;;;;;31.50;18.43;;;9.80;58.30;;;;;;5007105;28;20644;-41
2020/12/09 06:36:15;;;;;;;35.10;20.10;;;9.90;58.10;;;;;;5007408;28;21335;-42
2020/12/09 06:39:01;;;;;;;30.03;19.97;;;10.20;56.70;;;;;;5003644;28;20453;-41
2020/12/09 06:41:27;;;;;;;34.33;21.63;;;10.10;54.60;;;;;;5006269;28;20475;-41
2020/12/09 06:44:02;;;;;;;29.00;20.37;;;10.20;55.00;;;;;;5007577;28;20444;-41
2020/12/09 06:46:54;;;;;;;28.03;20.40;;;10.30;55.10;;;;;;5008491;28;20201;-42
2020/12/09 06:49:44;;;;;;;27.73;19.83;;;10.40;54.60;;;;;;4999367;28;20525;-41
2020/12/09 06:52:09;;;;;;;29.37;20.13;;;10.50;54.30;;;;;;5003923;28;20447;-41
2020/12/09 06:54:48;;;;;;;31.43;21.33;;;10.50;54.00;;;;;;5004620;28;20825;-41
2020/12/09 06:57:19;;;;;;;30.17;21.30;;;10.60;53.70;;;;;;5004163;28;20198;-41
2020/12/09 06:59:50;;;;;;;30.83;21.23;;;10.60;53.60;;;;;;5008655;28;20452;-41
2020/12/09 07:02:30;;;;;;;28.50;19.63;;;10.60;53.60;;;;;;5008997;28;20448;-41
2020/12/09 07:04:58;;;;;;;30.30;21.50;;;10.70;53.30;;;;;;5009061;28;20456;-41
2020/12/09 07:07:30;;;;;;;33.77;23.47;;;10.70;53.40;;;;;;5012788;28;20855;-41
2020/12/09 07:09:57;;;;;;;36.00;22.63;;;10.80;53.10;;;;;;5011236;28;20491;-41
2020/12/09 07:12:23;;;;;;;32.53;22.83;;;10.80;52.80;;;;;;5012398;28;20480;-41
2020/12/09 07:14:50;;;;;;;34.73;21.77;;;10.80;52.90;;;;;;5011160;28;20476;-41
2020/12/09 07:17:17;;;;;;;31.77;22.20;;;10.80;52.70;;;;;;5005979;28;20506;-41
2020/12/09 07:19:43;;;;;;;31.30;23.23;;;10.80;52.50;;;;;;5007921;28;20448;-41
2020/12/09 07:22:08;;;;;;;31.43;22.10;;;10.80;52.50;;;;;;5012886;28;20499;-41
2020/12/09 07:24:34;;;;;;;34.90;22.10;;;10.80;52.50;;;;;;5012517;28;20197;-41
2020/12/09 07:27:00;;;;;;;30.13;21.87;;;10.80;52.70;;;;;;5008356;28;20209;-41
2020/12/09 07:29:26;;;;;;;31.70;22.07;;;10.80;52.70;;;;;;5010871;28;20221;-41
2020/12/09 07:31:57;;;;;;;31.50;22.20;;;10.80;52.60;;;;;;5008533;28;20205;-41
2020/12/09 07:34:23;;;;;;;31.80;21.57;;;10.80;52.60;;;;;;5012665;28;20445;-41
2020/12/09 07:36:53;;;;;;;29.03;22.13;;;10.90;52.80;;;;;;5008112;28;20490;-41
2020/12/09 07:39:48;;;;;;;32.40;21.93;;;10.80;52.80;;;;;;5011070;28;20728;-41
2020/12/09 07:42:14;;;;;;;32.37;22.30;;;10.80;53.10;;;;;;5008344;28;20468;-41
2020/12/09 07:44:42;;;;;;;32.17;20.40;;;10.80;53.10;;;;;;5013237;28;20452;-43
2020/12/09 07:47:09;;;;;;;38.40;25.03;;;10.80;53.20;;;;;;5007894;28;20502;-41
2020/12/09 07:49:35;;;;;;;35.63;24.47;;;10.80;53.00;;;;;;5012723;28;20483;-42
2020/12/09 07:52:17;;;;;;;33.63;22.30;;;10.80;53.20;;;;;;5012617;28;20547;-41
2020/12/09 07:54:44;;;;;;;31.77;21.43;;;10.80;52.80;;;;;;5012959;28;20575;-41
2020/12/09 07:57:09;;;;;;;29.03;20.37;;;10.70;52.60;;;;;;5012216;28;20528;-41
2020/12/09 07:59:35;;;;;;;33.57;22.33;;;10.60;52.50;;;;;;5012552;28;20524;-41
2020/12/09 08:02:27;;;;;;;34.57;22.10;;;10.50;52.80;;;;;;5011782;28;20221;-42
2020/12/09 08:05:15;;;;;;;27.70;20.37;;;10.30;53.60;;;;;;5011604;28;20190;-41
2020/12/09 08:07:54;;;;;;;32.63;23.33;;;10.20;53.40;;;;;;5012546;28;20480;-41
2020/12/09 08:10:25;;;;;;;34.77;23.73;;;10.00;53.70;;;;;;5008439;28;20456;-41
2020/12/09 08:13:21;;;;;;;31.33;22.80;;;9.90;55.00;;;;;;5011356;28;20940;-41
2020/12/09 08:16:06;;;;;;;35.23;24.50;;;9.80;55.40;;;;;;5005358;28;20569;-41
2020/12/09 08:18:33;;;;;;;34.40;23.70;;;9.70;56.00;;;;;;5012143;28;21023;-41
2020/12/09 08:20:59;;;;;;;30.10;21.23;;;9.70;56.50;;;;;;5011844;28;20441;-41
2020/12/09 08:23:45;;;;;;;31.33;21.50;;;9.80;56.60;;;;;;5012509;28;20835;-41
2020/12/09 08:26:12;;;;;;;34.60;21.70;;;9.90;56.20;;;;;;5009298;28;20205;-41
2020/12/09 08:28:38;;;;;;;31.73;19.70;;;9.80;55.80;;;;;;5011143;28;21000;-42
2020/12/09 08:31:14;;;;;;;36.67;22.30;;;9.90;56.20;;;;;;5009054;28;20516;-41
2020/12/09 08:33:40;;;;;;;31.43;21.33;;;9.80;55.80;;;;;;5011013;28;20456;-41
2020/12/09 08:36:10;;;;;;;31.70;20.97;;;9.70;55.90;;;;;;5010508;28;20496;-41
2020/12/09 08:38:37;;;;;;;33.37;21.93;;;9.70;56.70;;;;;;5011460;28;20201;-41
2020/12/09 08:41:05;;;;;;;30.90;21.90;;;9.70;56.80;;;;;;5011371;28;20441;-42
2020/12/09 08:43:34;;;;;;;35.00;23.00;;;9.90;57.00;;;;;;5009782;28;20448;-41
2020/12/09 08:46:01;;;;;;;30.07;20.60;;;10.10;56.00;;;;;;5010829;28;20433;-41
2020/12/09 08:48:27;;;;;;;31.93;21.93;;;10.20;55.60;;;;;;5012311;28;20527;-42
2020/12/09 08:50:53;;;;;;;31.07;22.23;;;10.30;55.20;;;;;;5011662;28;20820;-41
2020/12/09 08:53:20;;;;;;;31.10;22.07;;;10.40;54.60;;;;;;5010812;28;20190;-41
2020/12/09 08:55:47;;;;;;;33.30;23.77;;;10.20;54.50;;;;;;4999567;28;20538;-40
2020/12/09 08:58:14;;;;;;;32.90;22.63;;;10.10;54.60;;;;;;5003828;28;21005;-40
2020/12/09 09:00:41;;;;;;;33.37;23.13;;;10.00;55.10;;;;;;5005061;28;20495;-39
2020/12/09 09:03:11;;;;;;;35.10;23.93;;;9.80;56.30;;;;;;5008775;28;20440;-40
2020/12/09 09:05:40;;;;;;;38.83;24.33;;;9.70;56.70;;;;;;5010252;28;20441;-40
2020/12/09 09:08:06;;;;;;;38.47;24.93;;;9.60;57.30;;;;;;5008934;28;20430;-40
2020/12/09 09:10:31;;;;;;;36.50;24.17;;;9.50;57.90;;;;;;5011690;28;20436;-40
2020/12/09 09:12:57;;;;;;;36.40;24.33;;;9.50;58.30;;;;;;5005567;28;20959;-40
2020/12/09 09:15:23;;;;;;;38.00;23.27;;;9.40;58.50;;;;;;5011981;28;20249;-40
2020/12/09 09:17:48;;;;;;;37.03;23.40;;;9.40;58.80;;;;;;5009669;28;20198;-40
2020/12/09 09:20:14;;;;;;;36.33;22.60;;;9.40;59.00;;;;;;5011027;28;20433;-40
2020/12/09 09:22:40;;;;;;;35.83;23.17;;;9.40;58.90;;;;;;5010732;28;20682;-40
2020/12/09 09:25:06;;;;;;;35.50;24.00;;;9.40;58.90;;;;;;5007153;28;20225;-40
2020/12/09 09:27:31;;;;;;;33.80;23.43;;;9.40;58.90;;;;;;5008839;28;20471;-40
2020/12/09 09:29:58;;;;;;;38.40;25.27;;;9.40;58.90;;;;;;5007916;28;20204;-40
2020/12/09 09:32:25;;;;;;;35.83;23.30;;;9.40;58.90;;;;;;5009383;28;20287;-40
2020/12/09 09:34:51;;;;;;;31.47;22.07;;;9.40;59.00;;;;;;5007813;28;20476;-40
2020/12/09 09:37:17;;;;;;;36.57;21.50;;;9.40;59.20;;;;;;5010262;28;20425;-40
2020/12/09 09:39:43;;;;;;;30.33;21.20;;;9.40;59.20;;;;;;5008320;28;20445;-40
2020/12/09 09:42:10;;;;;;;34.33;22.70;;;9.30;59.00;;;;;;5005807;28;20197;-40
2020/12/09 09:44:36;;;;;;;37.70;24.13;;;9.30;59.00;;;;;;5005002;28;21137;-40
2020/12/09 09:47:01;;;;;;;38.00;24.80;;;9.40;59.10;;;;;;5009459;28;20432;-40
2020/12/09 09:49:27;;;;;;;35.77;24.33;;;9.30;59.10;;;;;;5009613;28;20233;-40
2020/12/09 09:51:53;;;;;;;39.00;25.40;;;9.30;59.40;;;;;;5009731;28;20189;-40
2020/12/09 09:54:22;;;;;;;33.07;23.07;;;9.30;59.70;;;;;;5011001;28;20942;-40
2020/12/09 09:56:49;;;;;;;37.40;22.80;;;9.30;59.60;;;;;;5015134;28;20209;-42
2020/12/09 09:59:15;;;;;;;34.10;23.90;;;9.30;59.60;;;;;;5009014;28;20528;-40
2020/12/09 10:01:41;;;;;;;35.40;23.13;;;9.30;59.80;;;;;;5008149;28;20463;-40
2020/12/09 10:04:08;;;;;;;34.93;24.03;;;9.30;59.80;;;;;;5002880;28;20444;-40
2020/12/09 10:06:35;;;;;;;36.27;23.40;;;9.30;59.80;;;;;;5008136;28;20545;-40
2020/12/09 10:09:02;;;;;;;37.27;23.50;;;9.30;59.80;;;;;;5006649;28;20437;-40
2020/12/09 10:11:27;;;;;;;38.23;25.23;;;9.20;60.10;;;;;;5004333;28;20966;-40
2020/12/09 10:13:53;;;;;;;31.70;22.40;;;9.30;60.10;;;;;;5008727;28;20425;-40
2020/12/09 10:16:31;;;;;;;33.07;23.70;;;9.30;59.90;;;;;;5007124;28;20681;-40
2020/12/09 10:18:59;;;;;;;40.40;25.60;;;9.40;59.80;;;;;;5007851;28;20197;-41
2020/12/09 10:21:32;;;;;;;41.50;24.27;;;9.40;59.80;;;;;;4998949;28;20440;-41
2020/12/09 10:23:59;;;;;;;37.27;25.07;;;9.40;59.90;;;;;;5001542;28;20428;-41
2020/12/09 10:26:36;;;;;;;34.73;22.30;;;9.30;60.30;;;;;;5013140;28;20448;-41
2020/12/09 10:29:07;;;;;;;33.77;22.40;;;9.20;60.60;;;;;;5010088;28;20429;-41
2020/12/09 10:31:45;;;;;;;36.00;24.03;;;9.10;60.80;;;;;;5009772;28;20607;-41
2020/12/09 10:34:13;;;;;;;35.33;22.83;;;9.10;61.00;;;;;;5013120;28;20486;-41
2020/12/09 10:36:42;;;;;;;38.20;25.37;;;9.10;61.30;;;;;;5008504;28;20481;-41
2020/12/09 10:39:09;;;;;;;35.23;22.50;;;9.10;61.30;;;;;;5017184;28;20971;-41
2020/12/09 10:41:38;;;;;;;30.63;22.67;;;9.10;61.00;;;;;;5010028;28;20476;-41
2020/12/09 10:44:04;;;;;;;38.73;24.00;;;9.20;61.10;;;;;;5023118;28;20502;-41
2020/12/09 10:46:32;;;;;;;34.10;23.07;;;9.20;60.80;;;;;;5009851;28;20539;-41
2020/12/09 10:48:59;;;;;;;35.93;24.80;;;9.20;61.10;;;;;;5010023;28;20277;-41
2020/12/09 10:51:26;;;;;;;32.53;21.83;;;9.20;61.60;;;;;;5008767;28;20494;-41
2020/12/09 10:53:51;;;;;;;33.23;22.80;;;9.10;61.60;;;;;;5010742;28;20516;-41
2020/12/09 10:56:31;;;;;;;36.67;22.83;;;9.10;61.50;;;;;;5009516;28;21093;-41
2020/12/09 10:58:57;;;;;;;39.50;23.33;;;9.10;61.70;;;;;;5007385;28;20247;-41
2020/12/09 11:01:27;;;;;;;30.60;21.30;;;9.20;61.50;;;;;;5005823;28;20440;-41
2020/12/09 11:03:53;;;;;;;33.33;22.57;;;9.20;61.00;;;;;;5006058;28;20433;-41
2020/12/09 11:06:29;;;;;;;32.67;23.27;;;9.20;60.70;;;;;;5009636;28;20425;-41
2020/12/09 11:08:56;;;;;;;33.27;22.33;;;9.30;60.60;;;;;;5001622;28;20469;-41
2020/12/09 11:11:23;;;;;;;34.83;23.63;;;9.30;60.70;;;;;;5003852;28;20460;-41
2020/12/09 11:13:49;;;;;;;29.83;22.23;;;9.30;60.60;;;;;;5009388;28;20445;-41
2020/12/09 11:16:15;;;;;;;33.57;21.23;;;9.20;60.40;;;;;;5009091;28;20486;-41
2020/12/09 11:18:42;;;;;;;30.30;21.03;;;9.30;60.50;;;;;;5008923;28;20433;-41
2020/12/09 11:21:08;;;;;;;34.40;22.77;;;9.30;60.40;;;;;;5009756;28;20460;-41
2020/12/09 11:23:34;;;;;;;33.27;22.67;;;9.30;60.50;;;;;;5009918;28;20437;-41
2020/12/09 11:26:00;;;;;;;30.70;22.07;;;9.40;60.60;;;;;;5013324;28;20433;-41
2020/12/09 11:28:26;;;;;;;32.97;22.40;;;9.40;60.40;;;;;;5009842;28;20436;-41
2020/12/09 11:30:51;;;;;;;34.10;24.27;;;9.40;60.30;;;;;;5007800;28;20451;-41
2020/12/09 11:33:17;;;;;;;36.43;23.97;;;9.40;60.00;;;;;;5009104;28;20206;-41
2020/12/09 11:35:43;;;;;;;37.90;25.97;;;9.40;60.00;;;;;;5010226;28;20279;-41
2020/12/09 11:38:08;;;;;;;35.03;23.77;;;9.40;60.00;;;;;;5018895;28;20293;-41
2020/12/09 11:40:34;;;;;;;32.37;22.87;;;9.40;60.10;;;;;;5009355;28;20461;-42
2020/12/09 11:42:59;;;;;;;39.63;23.40;;;9.50;60.30;;;;;;5009126;28;20198;-41
2020/12/09 11:45:25;;;;;;;34.43;23.20;;;9.50;60.00;;;;;;5009666;28;20198;-41
2020/12/09 11:47:50;;;;;;;31.83;22.47;;;9.50;59.80;;;;;;5009861;28;20728;-41
2020/12/09 11:50:16;;;;;;;29.93;21.70;;;9.60;59.80;;;;;;5006366;28;20320;-41
2020/12/09 11:52:42;;;;;;;37.47;23.53;;;9.60;59.70;;;;;;5006770;28;20868;-41
2020/12/09 11:55:07;;;;;;;37.10;24.07;;;9.60;59.80;;;;;;5011245;28;20352;-42
2020/12/09 11:57:33;;;;;;;36.80;24.43;;;9.60;59.50;;;;;;5012146;28;20205;-41
2020/12/09 11:59:59;;;;;;;38.23;24.80;;;9.60;59.30;;;;;;5011390;28;20190;-42
2020/12/09 12:02:24;;;;;;;34.53;23.63;;;9.60;59.10;;;;;;5007889;28;20203;-41
2020/12/09 12:04:53;;;;;;;34.53;24.13;;;9.60;59.20;;;;;;5007224;28;20280;-41
2020/12/09 12:07:18;;;;;;;40.03;25.30;;;9.60;59.30;;;;;;5012341;28;20273;-41
2020/12/09 12:09:44;;;;;;;37.23;23.53;;;9.60;59.30;;;;;;5009045;28;20568;-41
2020/12/09 12:12:09;;;;;;;36.30;24.10;;;9.60;59.30;;;;;;5002224;28;20194;-41
2020/12/09 12:14:35;;;;;;;36.93;24.40;;;9.60;59.30;;;;;;5026774;28;20661;-41
2020/12/09 12:17:01;;;;;;;35.97;24.67;;;9.60;59.30;;;;;;5023924;28;20225;-41
2020/12/09 12:19:26;;;;;;;40.23;26.13;;;9.60;59.20;;;;;;5011457;28;20252;-41
2020/12/09 12:21:52;;;;;;;37.93;24.60;;;9.60;59.40;;;;;;5011124;28;20194;-42
2020/12/09 12:24:17;;;;;;;39.57;25.53;;;9.60;59.40;;;;;;5013210;28;20217;-41
2020/12/09 12:26:43;;;;;;;40.80;25.67;;;9.60;59.50;;;;;;5011572;28;20194;-41
2020/12/09 12:29:09;;;;;;;35.37;24.87;;;9.70;59.40;;;;;;5011573;28;20226;-41
2020/12/09 12:31:35;;;;;;;40.77;26.93;;;9.50;59.20;;;;;;5015757;28;20197;-41
2020/12/09 12:34:01;;;;;;;43.23;28.17;;;9.30;59.60;;;;;;5010113;28;20453;-42
2020/12/09 12:36:26;;;;;;;50.10;28.13;;;9.30;60.20;;;;;;5019464;28;20276;-41
2020/12/09 12:38:52;;;;;;;40.67;24.77;;;9.40;60.40;;;;;;5005912;28;20952;-41
2020/12/09 12:41:17;;;;;;;43.87;26.57;;;9.40;60.00;;;;;;5009216;28;20612;-41